createdAt,value
2019-02-19T00:00:05.995Z,8.10
2019-02-19T00:02:35.233Z,8.10
2019-02-19T00:05:04.523Z,8.10
2019-02-19T00:07:33.791Z,8.10
2019-02-19T00:10:03.109Z,8.10
2019-02-19T00:12:32.918Z,8.10
2019-02-19T00:15:07.995Z,8.20
2019-02-19T00:17:33.178Z,8.10
2019-02-19T00:20:02.454Z,8.10
2019-02-19T00:22:32.084Z,8.10
2019-02-19T00:25:01.337Z,8.10
2019-02-19T00:27:30.620Z,8.10
2019-02-19T00:29:59.769Z,8.10
2019-02-19T00:32:29.058Z,8.00
2019-02-19T00:34:58.340Z,8.00
2019-02-19T00:37:27.641Z,8.00
2019-02-19T00:39:56.930Z,8.00
2019-02-19T00:42:26.443Z,7.90
2019-02-19T00:44:55.806Z,7.90
2019-02-19T00:47:25.066Z,7.90
2019-02-19T00:49:54.682Z,7.80
2019-02-19T00:52:23.992Z,7.80
2019-02-19T00:54:53.442Z,7.80
2019-02-19T00:57:22.954Z,7.80
2019-02-19T00:59:52.497Z,7.70
2019-02-19T01:02:21.794Z,7.80
2019-02-19T01:04:51.090Z,7.90
2019-02-19T01:07:20.772Z,7.90
2019-02-19T01:09:50.031Z,8.00
2019-02-19T01:12:19.451Z,8.10
2019-02-19T01:14:48.938Z,8.00
2019-02-19T01:17:18.238Z,7.90
2019-02-19T01:19:47.539Z,7.80
2019-02-19T01:22:18.082Z,7.90
2019-02-19T01:24:47.353Z,8.00
2019-02-19T01:27:16.634Z,8.10
2019-02-19T01:29:45.883Z,8.00
2019-02-19T01:32:15.131Z,7.90
2019-02-19T01:34:44.499Z,7.90
2019-02-19T01:37:13.773Z,7.90
2019-02-19T01:39:43.035Z,7.80
2019-02-19T01:42:12.464Z,7.90
2019-02-19T01:44:42.135Z,7.90
2019-02-19T01:47:11.654Z,8.00
2019-02-19T01:49:40.910Z,8.20
2019-02-19T01:52:10.172Z,8.10
2019-02-19T01:54:39.440Z,7.90
2019-02-19T01:57:08.602Z,7.90
2019-02-19T01:59:37.878Z,7.80
2019-02-19T02:02:07.066Z,7.90
2019-02-19T02:04:36.379Z,8.20
2019-02-19T02:07:05.695Z,8.40
2019-02-19T02:09:34.925Z,8.30
2019-02-19T02:12:04.222Z,8.10
2019-02-19T02:14:33.549Z,8.10
2019-02-19T02:17:02.847Z,8.10
2019-02-19T02:19:32.163Z,8.00
2019-02-19T02:22:01.772Z,7.90
2019-02-19T02:24:31.086Z,7.80
2019-02-19T02:27:00.395Z,7.80
2019-02-19T02:29:29.757Z,7.90
2019-02-19T02:31:59.062Z,7.80
2019-02-19T02:34:28.402Z,7.80
2019-02-19T02:36:57.708Z,7.80
2019-02-19T02:39:27.253Z,7.80
2019-02-19T02:41:56.540Z,7.80
2019-02-19T02:44:25.863Z,7.70
2019-02-19T02:46:55.112Z,7.80
2019-02-19T02:49:24.392Z,7.50
2019-02-19T02:51:53.665Z,7.40
2019-02-19T02:54:22.986Z,7.30
2019-02-19T02:56:52.281Z,7.20
2019-02-19T02:59:21.544Z,7.20
2019-02-19T03:01:50.853Z,7.10
2019-02-19T03:04:20.150Z,7.10
2019-02-19T03:06:54.710Z,7.20
2019-02-19T03:09:23.997Z,7.10
2019-02-19T03:11:53.614Z,7.10
2019-02-19T03:14:22.863Z,7.10
2019-02-19T03:16:52.146Z,7.10
2019-02-19T03:19:21.383Z,7.10
2019-02-19T03:21:50.702Z,7.20
2019-02-19T03:24:19.976Z,7.20
2019-02-19T03:26:49.206Z,7.00
2019-02-19T03:29:18.484Z,7.00
2019-02-19T03:31:48.020Z,7.00
2019-02-19T03:34:17.266Z,7.00
2019-02-19T03:36:46.743Z,7.00
2019-02-19T03:39:16.070Z,7.30
2019-02-19T03:41:45.250Z,7.20
2019-02-19T03:44:14.434Z,7.00
2019-02-19T03:46:43.708Z,7.10
2019-02-19T03:49:13.070Z,7.00
2019-02-19T03:51:42.324Z,7.00
2019-02-19T03:54:11.734Z,7.10
2019-02-19T03:56:41.021Z,7.00
2019-02-19T03:59:10.314Z,7.10
2019-02-19T04:01:39.610Z,7.00
2019-02-19T04:04:09.009Z,7.10
2019-02-19T04:06:38.363Z,7.00
2019-02-19T04:09:07.879Z,6.90
2019-02-19T04:11:37.153Z,7.00
2019-02-19T04:14:06.403Z,7.00
2019-02-19T04:16:35.752Z,6.80
2019-02-19T04:19:05.086Z,6.70
2019-02-19T04:21:34.338Z,6.80
2019-02-19T04:24:03.669Z,7.00
2019-02-19T04:26:32.934Z,7.00
2019-02-19T04:29:02.191Z,7.00
2019-02-19T04:31:31.879Z,7.00
2019-02-19T04:34:01.479Z,7.00
2019-02-19T04:36:31.161Z,6.90
2019-02-19T04:39:00.632Z,7.00
2019-02-19T04:41:29.862Z,6.80
2019-02-19T04:43:59.132Z,6.70
2019-02-19T04:46:31.471Z,6.70
2019-02-19T04:48:59.686Z,6.60
2019-02-19T04:51:28.944Z,6.50
2019-02-19T04:53:58.407Z,6.50
2019-02-19T04:56:27.651Z,6.40
2019-02-19T04:58:56.943Z,6.30
2019-02-19T05:01:26.201Z,6.50
2019-02-19T05:03:55.450Z,6.50
2019-02-19T05:06:24.909Z,6.40
2019-02-19T05:08:54.210Z,6.30
2019-02-19T05:11:23.394Z,6.50
2019-02-19T05:13:52.710Z,6.30
2019-02-19T05:16:21.994Z,6.40
2019-02-19T05:18:51.291Z,6.40
2019-02-19T05:21:20.750Z,6.40
2019-02-19T05:23:50.009Z,6.50
2019-02-19T05:26:19.245Z,6.40
2019-02-19T05:28:48.497Z,6.30
2019-02-19T05:31:17.851Z,6.30
2019-02-19T05:33:47.183Z,6.40
2019-02-19T05:36:16.514Z,6.20
2019-02-19T05:38:45.787Z,6.10
2019-02-19T05:41:15.090Z,6.00
2019-02-19T05:43:44.318Z,6.10
2019-02-19T05:46:13.572Z,6.10
2019-02-19T05:48:42.831Z,6.30
2019-02-19T05:51:15.837Z,6.60
2019-02-19T05:53:45.071Z,6.60
2019-02-19T05:56:14.384Z,6.60
2019-02-19T05:58:43.626Z,6.50
2019-02-19T06:01:12.923Z,6.40
2019-02-19T06:03:42.189Z,6.60
2019-02-19T06:06:11.727Z,6.60
2019-02-19T06:08:41.042Z,6.50
2019-02-19T06:11:11.880Z,6.60
2019-02-19T06:13:41.103Z,6.40
2019-02-19T06:16:10.405Z,6.60
2019-02-19T06:18:39.729Z,6.90
2019-02-19T06:21:09.502Z,6.70
2019-02-19T06:23:38.823Z,6.80
2019-02-19T06:26:08.179Z,6.60
2019-02-19T06:28:37.437Z,6.40
2019-02-19T06:31:06.826Z,6.30
2019-02-19T06:33:36.122Z,6.20
2019-02-19T06:36:05.370Z,6.10
2019-02-19T06:38:34.706Z,6.30
2019-02-19T06:41:04.330Z,6.20
2019-02-19T06:43:33.576Z,6.10
2019-02-19T06:46:02.914Z,6.30
2019-02-19T06:48:32.223Z,6.30
2019-02-19T06:51:01.479Z,6.20
2019-02-19T06:53:30.766Z,6.10
2019-02-19T06:56:00.050Z,6.10
2019-02-19T06:58:29.365Z,6.00
2019-02-19T07:00:58.631Z,6.00
2019-02-19T07:03:45.329Z,5.90
2019-02-19T07:06:14.600Z,6.10
2019-02-19T07:08:43.933Z,6.10
2019-02-19T07:11:13.258Z,6.00
2019-02-19T07:13:42.545Z,6.10
2019-02-19T07:16:11.914Z,6.40
2019-02-19T07:18:41.266Z,6.30
2019-02-19T07:21:12.178Z,6.30
2019-02-19T07:23:41.516Z,6.30
2019-02-19T07:26:10.820Z,6.40
2019-02-19T07:28:40.066Z,6.40
2019-02-19T07:31:09.359Z,6.50
2019-02-19T07:33:38.687Z,6.60
2019-02-19T07:36:08.043Z,6.60
2019-02-19T07:38:37.313Z,6.80
2019-02-19T07:41:06.601Z,7.00
2019-02-19T07:43:35.866Z,7.10
2019-02-19T07:46:05.117Z,7.20
2019-02-19T07:48:34.417Z,7.40
2019-02-19T07:51:03.736Z,7.40
2019-02-19T07:53:33.008Z,7.20
2019-02-19T07:56:02.387Z,7.10
2019-02-19T07:58:31.800Z,7.20
2019-02-19T08:01:01.099Z,7.40
2019-02-19T08:03:30.413Z,7.50
2019-02-19T08:06:00.045Z,7.40
2019-02-19T08:08:30.390Z,7.50
2019-02-19T08:10:59.826Z,7.40
2019-02-19T08:13:29.155Z,7.60
2019-02-19T08:15:58.404Z,7.70
2019-02-19T08:18:27.724Z,7.80
2019-02-19T08:20:57.316Z,7.90
2019-02-19T08:23:26.611Z,8.20
2019-02-19T08:25:55.953Z,8.30
2019-02-19T08:28:25.262Z,8.50
2019-02-19T08:30:54.530Z,8.60
2019-02-19T08:33:42.340Z,8.50
2019-02-19T08:36:11.667Z,8.60
2019-02-19T08:38:42.897Z,8.50
2019-02-19T08:41:12.026Z,8.30
2019-02-19T08:43:41.286Z,8.50
2019-02-19T08:46:10.539Z,8.60
2019-02-19T08:48:39.935Z,8.90
2019-02-19T08:51:09.209Z,9.20
2019-02-19T08:53:38.654Z,9.20
2019-02-19T08:56:08.073Z,9.20
2019-02-19T08:58:37.356Z,9.30
2019-02-19T09:01:07.881Z,9.30
2019-02-19T09:03:37.207Z,9.40
2019-02-19T09:06:06.549Z,9.40
2019-02-19T09:08:35.857Z,9.50
2019-02-19T09:11:05.445Z,9.60
2019-02-19T09:13:34.746Z,9.80
2019-02-19T09:16:04.294Z,10.10
2019-02-19T09:18:33.814Z,10.20
2019-02-19T09:21:03.158Z,10.40
2019-02-19T09:23:32.591Z,10.70
2019-02-19T09:26:02.272Z,11.00
2019-02-19T09:28:32.022Z,11.10
2019-02-19T09:31:01.428Z,11.30
2019-02-19T09:33:30.831Z,11.20
2019-02-19T09:36:00.288Z,11.20
2019-02-19T09:38:29.895Z,11.30
2019-02-19T09:40:59.323Z,11.10
2019-02-19T09:43:35.307Z,11.30
2019-02-19T09:45:59.973Z,11.70
2019-02-19T09:48:29.703Z,11.50
2019-02-19T09:50:59.507Z,11.30
2019-02-19T09:53:29.255Z,11.50
2019-02-19T09:55:58.661Z,11.80
2019-02-19T09:58:28.002Z,11.60
2019-02-19T10:00:57.243Z,11.50
2019-02-19T10:03:26.496Z,11.50
2019-02-19T10:05:56.010Z,12.00
2019-02-19T10:08:25.503Z,12.00
2019-02-19T10:10:54.811Z,11.90
2019-02-19T10:13:25.165Z,11.70
2019-02-19T10:15:54.785Z,11.90
2019-02-19T10:18:24.143Z,12.10
2019-02-19T10:20:53.423Z,12.50
2019-02-19T10:23:22.707Z,12.40
2019-02-19T10:25:52.039Z,12.10
2019-02-19T10:28:21.277Z,12.50
2019-02-19T10:30:50.896Z,13.00
2019-02-19T10:33:20.166Z,12.80
2019-02-19T10:35:51.861Z,12.50
2019-02-19T10:38:21.114Z,12.50
2019-02-19T10:40:50.602Z,12.60
2019-02-19T10:43:19.929Z,12.50
2019-02-19T10:45:49.125Z,12.40
2019-02-19T10:48:19.478Z,12.90
2019-02-19T10:50:52.059Z,13.10
2019-02-19T10:53:21.395Z,13.20
2019-02-19T10:55:50.675Z,13.30
2019-02-19T10:58:22.846Z,13.10
2019-02-19T11:00:51.168Z,13.00
2019-02-19T11:03:20.546Z,13.10
2019-02-19T11:05:51.267Z,13.20
2019-02-19T11:08:20.622Z,13.20
2019-02-19T11:10:50.885Z,13.10
2019-02-19T11:13:20.818Z,13.10
2019-02-19T11:15:50.133Z,13.10
2019-02-19T11:18:27.814Z,12.90
2019-02-19T11:20:50.515Z,12.90
2019-02-19T11:23:19.798Z,12.80
2019-02-19T11:25:49.062Z,12.80
2019-02-19T11:28:18.414Z,12.80
2019-02-19T11:30:47.668Z,13.00
2019-02-19T11:33:16.857Z,12.70
2019-02-19T11:35:46.282Z,12.60
2019-02-19T11:38:15.774Z,12.40
2019-02-19T11:40:45.034Z,12.20
2019-02-19T11:43:14.369Z,12.00
2019-02-19T11:45:43.785Z,12.10
2019-02-19T11:48:13.226Z,12.30
2019-02-19T11:50:42.622Z,12.20
2019-02-19T11:53:11.969Z,12.50
2019-02-19T11:55:41.521Z,12.60
2019-02-19T11:58:10.806Z,12.80
2019-02-19T12:00:41.464Z,12.90
2019-02-19T12:03:10.755Z,12.90
2019-02-19T12:05:40.470Z,12.60
2019-02-19T12:08:09.932Z,12.70
2019-02-19T12:10:39.367Z,13.00
2019-02-19T12:13:08.682Z,12.80
2019-02-19T12:15:38.331Z,12.70
2019-02-19T12:18:07.691Z,12.70
2019-02-19T12:20:37.051Z,12.60
2019-02-19T12:23:06.591Z,12.50
2019-02-19T12:25:36.006Z,12.50
2019-02-19T12:28:05.297Z,12.80
2019-02-19T12:30:34.718Z,13.00
2019-02-19T12:33:04.109Z,12.70
2019-02-19T12:35:33.419Z,12.90
2019-02-19T12:38:04.694Z,13.00
2019-02-19T12:40:34.342Z,12.80
2019-02-19T12:43:04.326Z,12.50
2019-02-19T12:45:33.922Z,12.50
2019-02-19T12:48:03.443Z,12.40
2019-02-19T12:50:32.986Z,12.50
2019-02-19T12:53:02.389Z,12.60
2019-02-19T12:55:31.734Z,12.60
2019-02-19T12:58:01.046Z,12.60
2019-02-19T13:00:30.231Z,12.50
2019-02-19T13:03:18.578Z,12.40
2019-02-19T13:05:49.172Z,12.40
2019-02-19T13:08:19.092Z,12.40
2019-02-19T13:10:48.740Z,12.40
2019-02-19T13:13:18.463Z,12.20
2019-02-19T13:15:48.510Z,12.10
2019-02-19T13:18:18.020Z,12.20
2019-02-19T13:20:47.587Z,12.20
2019-02-19T13:23:17.176Z,12.30
2019-02-19T13:25:46.957Z,12.30
2019-02-19T13:28:16.613Z,12.40
2019-02-19T13:30:46.568Z,12.30
2019-02-19T13:33:16.168Z,12.20
2019-02-19T13:35:46.093Z,12.10
2019-02-19T13:38:15.757Z,11.90
2019-02-19T13:40:45.204Z,12.00
2019-02-19T13:43:14.775Z,12.20
2019-02-19T13:45:44.443Z,12.00
2019-02-19T13:48:14.134Z,11.90
2019-02-19T13:50:43.969Z,11.90
2019-02-19T13:53:50.958Z,11.90
2019-02-19T13:56:20.857Z,11.90
2019-02-19T13:58:50.695Z,11.90
2019-02-19T14:01:20.783Z,11.90
2019-02-19T14:03:50.317Z,11.60
2019-02-19T14:06:20.128Z,11.50
2019-02-19T14:08:49.795Z,11.60
2019-02-19T14:11:19.316Z,11.60
2019-02-19T14:14:10.644Z,11.60
2019-02-19T14:16:46.596Z,11.60
2019-02-19T14:19:23.571Z,11.60
2019-02-19T14:22:10.725Z,11.60
2019-02-19T14:25:01.839Z,11.50
2019-02-19T14:27:53.114Z,11.60
2019-02-19T14:30:47.378Z,11.40
2019-02-19T14:33:35.440Z,11.40
2019-02-19T14:36:23.701Z,11.50
2019-02-19T14:39:21.241Z,11.70
2019-02-19T14:42:12.307Z,11.80
2019-02-19T14:44:57.355Z,11.60
2019-02-19T14:47:48.376Z,11.90
2019-02-19T14:50:45.899Z,11.90
2019-02-19T14:53:28.631Z,11.60
2019-02-19T14:56:16.971Z,11.50
2019-02-19T14:59:04.411Z,11.50
2019-02-19T15:02:11.082Z,11.60
2019-02-19T15:05:11.565Z,11.50
2019-02-19T15:08:11.790Z,11.70
2019-02-19T15:10:56.395Z,11.70
2019-02-19T15:13:43.815Z,11.60
2019-02-19T15:16:47.462Z,11.70
2019-02-19T15:19:39.201Z,11.70
2019-02-19T15:22:17.351Z,11.50
2019-02-19T15:25:08.555Z,11.40
2019-02-19T15:28:01.270Z,11.40
2019-02-19T15:30:52.583Z,11.20
2019-02-19T15:33:54.159Z,11.10
2019-02-19T15:36:41.137Z,11.20
2019-02-19T15:39:29.548Z,11.00
2019-02-19T15:42:23.896Z,11.00
2019-02-19T15:45:10.719Z,10.80
2019-02-19T15:47:58.406Z,10.70
2019-02-19T15:50:49.458Z,10.70
2019-02-19T15:53:36.056Z,10.50
2019-02-19T15:56:21.854Z,10.60
2019-02-19T15:59:04.220Z,10.40
2019-02-19T16:01:52.482Z,10.50
2019-02-19T16:04:37.927Z,10.30
2019-02-19T16:07:20.004Z,10.20
2019-02-19T16:10:07.123Z,10.10
2019-02-19T16:12:44.921Z,10.20
2019-02-19T16:15:25.375Z,10.40
2019-02-19T16:18:12.206Z,10.20
2019-02-19T16:21:06.060Z,10.10
2019-02-19T16:23:57.402Z,10.00
2019-02-19T16:26:42.372Z,10.00
2019-02-19T16:29:29.466Z,9.80
2019-02-19T16:32:16.157Z,9.60
2019-02-19T16:35:03.451Z,9.70
2019-02-19T16:37:50.259Z,9.50
2019-02-19T16:40:41.500Z,9.40
2019-02-19T16:43:29.729Z,9.30
2019-02-19T16:46:20.782Z,9.10
2019-02-19T16:48:58.132Z,9.30
2019-02-19T16:51:46.974Z,9.10
2019-02-19T16:54:24.126Z,8.90
2019-02-19T16:57:02.011Z,8.90
2019-02-19T16:59:56.594Z,9.00
2019-02-19T17:02:32.871Z,8.90
2019-02-19T17:05:21.163Z,8.80
2019-02-19T17:08:02.873Z,9.00
2019-02-19T17:10:53.830Z,8.70
2019-02-19T17:13:48.008Z,8.80
2019-02-19T17:16:36.401Z,8.60
2019-02-19T17:19:34.599Z,8.40
2019-02-19T17:22:22.895Z,8.60
2019-02-19T17:25:03.331Z,8.60
2019-02-19T17:27:50.431Z,8.40
2019-02-19T17:30:31.725Z,8.50
2019-02-19T17:33:20.176Z,8.70
2019-02-19T17:36:08.471Z,8.50
2019-02-19T17:38:45.987Z,8.40
2019-02-19T17:41:32.278Z,8.10
2019-02-19T17:44:19.356Z,8.00
2019-02-19T17:47:06.510Z,7.90
2019-02-19T17:49:50.878Z,8.10
2019-02-19T17:52:38.209Z,8.00
2019-02-19T17:55:45.013Z,8.20
2019-02-19T17:58:34.850Z,8.00
2019-02-19T18:01:23.540Z,8.00
2019-02-19T18:04:15.064Z,7.90
2019-02-19T18:06:57.458Z,7.90
2019-02-19T18:09:44.402Z,7.70
2019-02-19T18:12:32.955Z,7.50
2019-02-19T18:15:19.694Z,7.40
2019-02-19T18:18:10.629Z,7.40
2019-02-19T18:20:47.315Z,7.30
2019-02-19T18:23:10.981Z,7.30
2019-02-19T18:25:40.297Z,7.40
2019-02-19T18:28:09.672Z,7.50
2019-02-19T18:30:39.102Z,7.50
2019-02-19T18:33:08.702Z,7.60
2019-02-19T18:35:38.350Z,7.60
2019-02-19T18:38:07.973Z,7.60
2019-02-19T18:40:37.356Z,7.40
2019-02-19T18:43:06.707Z,7.40
2019-02-19T18:45:36.121Z,7.40
2019-02-19T18:48:08.782Z,7.30
2019-02-19T18:50:41.051Z,7.40
2019-02-19T18:53:12.209Z,7.50
2019-02-19T18:55:41.547Z,7.40
2019-02-19T18:58:10.971Z,7.40
2019-02-19T19:00:40.286Z,7.30
2019-02-19T19:03:11.326Z,7.20
2019-02-19T19:05:40.788Z,7.10
2019-02-19T19:08:10.196Z,7.10
2019-02-19T19:10:39.507Z,7.10
2019-02-19T19:13:08.896Z,7.30
2019-02-19T19:15:38.374Z,7.20
2019-02-19T19:18:07.814Z,7.20
2019-02-19T19:20:37.231Z,7.10
2019-02-19T19:23:06.762Z,7.10
2019-02-19T19:25:36.135Z,7.30
2019-02-19T19:28:05.532Z,7.10
2019-02-19T19:30:34.848Z,7.00
2019-02-19T19:33:04.430Z,6.90
2019-02-19T19:35:33.709Z,6.90
2019-02-19T19:38:03.343Z,6.90
2019-02-19T19:40:32.721Z,6.90
2019-02-19T19:43:01.984Z,7.10
2019-02-19T19:45:31.291Z,7.00
2019-02-19T19:48:00.610Z,7.00
2019-02-19T19:50:31.440Z,6.90
2019-02-19T19:53:00.988Z,7.00
2019-02-19T19:55:30.899Z,7.00
2019-02-19T19:58:00.270Z,7.10
2019-02-19T20:00:29.656Z,7.00
2019-02-19T20:03:01.776Z,6.90
2019-02-19T20:05:31.165Z,6.90
2019-02-19T20:08:00.583Z,6.80
2019-02-19T20:10:29.978Z,6.70
2019-02-19T20:13:00.075Z,6.70
2019-02-19T20:15:29.428Z,6.60
2019-02-19T20:17:58.773Z,6.70
2019-02-19T20:20:28.294Z,6.70
2019-02-19T20:22:57.882Z,6.70
2019-02-19T20:25:27.169Z,6.70
2019-02-19T20:27:56.806Z,6.70
2019-02-19T20:30:26.131Z,6.70
2019-02-19T20:32:55.672Z,6.70
2019-02-19T20:35:24.964Z,6.70
2019-02-19T20:37:54.639Z,6.70
2019-02-19T20:40:25.184Z,6.60
2019-02-19T20:42:55.176Z,6.90
2019-02-19T20:45:24.913Z,6.90
2019-02-19T20:47:54.441Z,6.90
2019-02-19T20:50:23.726Z,6.90
2019-02-19T20:52:53.080Z,6.80
2019-02-19T20:55:22.300Z,6.70
2019-02-19T20:57:51.576Z,6.60
2019-02-19T21:00:21.350Z,6.60
2019-02-19T21:02:50.698Z,6.50
2019-02-19T21:05:20.010Z,6.50
2019-02-19T21:07:49.335Z,6.50
2019-02-19T21:10:18.844Z,6.60
2019-02-19T21:12:48.178Z,6.50
2019-02-19T21:15:17.460Z,6.40
2019-02-19T21:17:46.736Z,6.40
2019-02-19T21:20:16.010Z,6.30
2019-02-19T21:22:45.317Z,6.30
2019-02-19T21:25:14.790Z,6.40
2019-02-19T21:27:44.054Z,6.50
2019-02-19T21:30:13.692Z,6.60
2019-02-19T21:32:43.019Z,6.50
2019-02-19T21:35:12.349Z,6.60
2019-02-19T21:37:41.892Z,6.60
2019-02-19T21:40:11.252Z,6.60
2019-02-19T21:42:40.812Z,6.50
2019-02-19T21:45:10.571Z,6.50
2019-02-19T21:47:39.867Z,6.50
2019-02-19T21:50:09.639Z,6.50
2019-02-19T21:52:39.144Z,6.50
2019-02-19T21:55:08.421Z,6.60
2019-02-19T21:57:37.894Z,6.70
2019-02-19T22:00:08.745Z,6.70
2019-02-19T22:02:38.098Z,6.90
2019-02-19T22:05:07.789Z,6.90
2019-02-19T22:07:37.287Z,6.90
2019-02-19T22:10:06.977Z,6.90
2019-02-19T22:12:36.194Z,7.00
2019-02-19T22:15:05.890Z,7.00
2019-02-19T22:17:35.166Z,7.00
2019-02-19T22:20:06.103Z,7.10
2019-02-19T22:22:35.609Z,7.10
2019-02-19T22:25:05.790Z,7.30
2019-02-19T22:27:35.028Z,7.30
2019-02-19T22:30:05.043Z,7.30
2019-02-19T22:32:34.370Z,7.50
2019-02-19T22:35:03.597Z,7.60
2019-02-19T22:37:32.877Z,7.40
2019-02-19T22:40:02.258Z,7.40
2019-02-19T22:42:31.586Z,7.60
2019-02-19T22:45:01.012Z,7.60
2019-02-19T22:47:30.350Z,7.80
2019-02-19T22:49:59.653Z,7.80
2019-02-19T22:52:28.952Z,7.60
2019-02-19T22:55:07.772Z,7.60
2019-02-19T22:57:37.034Z,7.60
2019-02-19T23:00:09.555Z,7.50
2019-02-19T23:02:39.330Z,7.60
2019-02-19T23:05:15.764Z,7.60
2019-02-19T23:07:45.218Z,7.70
2019-02-19T23:10:14.794Z,7.70
2019-02-19T23:12:44.189Z,7.70
2019-02-19T23:15:13.696Z,7.70
2019-02-19T23:17:43.090Z,7.70
2019-02-19T23:20:12.710Z,7.60
2019-02-19T23:22:42.223Z,7.60
2019-02-19T23:25:11.463Z,7.70
2019-02-19T23:27:40.932Z,7.70
2019-02-19T23:30:13.496Z,7.70
2019-02-19T23:32:42.834Z,7.90
2019-02-19T23:35:27.391Z,7.90
2019-02-19T23:37:56.735Z,8.00
2019-02-19T23:40:25.994Z,7.80
2019-02-19T23:42:55.375Z,7.80
2019-02-19T23:45:24.694Z,7.70
2019-02-19T23:47:53.987Z,7.70
2019-02-19T23:50:25.219Z,7.80
2019-02-19T23:52:54.483Z,7.80
2019-02-19T23:55:24.219Z,7.80
2019-02-19T23:57:53.635Z,7.90
